Grandy, North Carolina
Current Conditions -  °F | °C
As of 4:55 AM on Monday 22 Dec 2014 (Local Time) from KONX Reporting Station
Drizzle Drizzle  
Wind Chill: 39°   Ceiling: 2300
Heat Index: 45°   Visibility: 7mi
Dew Point: 39°   Wind: 13mph
Humidity: 80%   Direction: 40°NE
Pressure: 30.18"   Gusts: 17mph
Location:  36.24°N, 75.88°W
Report Text: KONX 220955Z AUTO 04011G15KT 7SM DZ OVC023 07/04 A3018 RMK AO2 T00710039
Loading
Personal Weather Stations






























Interactive Weather Map New forecast layout! Learn more

10-Day Weather Forecast

Advertisements
Track Severe Weather on mobile